Wolke Sonne

Wetter Roßtal

Gehe zu: Ammerndorf

Tageswerte vom Donnerstag, 30.06.2022

Optionen

Tag:
Erweitert:

Alle Werte vom Donnerstag, 30.06.2022

Einen Moment bitte, die Daten werden aufbereitet...

UhrzeitTemperaturFeuchteLuftdruckNiederschlagEvapotranspirationNiederschlag?WindWindböenRegenrateWindrichtungHelligkeitSolarstrahlungUV-IndexSonne?Feinstaub 10µmFeinstaub 2,5µmUhrzeit
Diagramm IconDiagramm IconDiagramm IconDiagramm IconDiagramm IconDiagramm IconDiagramm IconDiagramm IconDiagramm IconDiagramm IconDiagramm IconDiagramm IconDiagramm IconDiagramm IconDiagramm IconDiagramm Icon
00:0020,0 °C 85 % 1012,8 hPa 0,0 mm 0,0 mm nein 3,2 km/h 4,8 km/h 0,0 mm/h S 0,000 klux 0,0 W/qm 0,0 nein 4,17 µg/m³ 3,60 µg/m³ 00:00
00:0520,0 °C 86 % 1012,9 hPa 0,0 mm 0,0 mm nein 3,2 km/h 4,8 km/h 0,0 mm/h S 0,000 klux 0,0 W/qm 0,0 nein 4,86 µg/m³ 4,38 µg/m³ 00:05
00:1020,0 °C 86 % 1012,9 hPa 0,0 mm 0,0 mm nein 3,2 km/h 4,8 km/h 0,0 mm/h SSO 0,000 klux 0,0 W/qm 0,0 nein 4,12 µg/m³ 3,69 µg/m³ 00:10
00:1519,4 °C 85 % 1013,0 hPa 0,0 mm 0,0 mm nein 1,6 km/h 3,2 km/h 0,0 mm/h SSO 0,000 klux 0,0 W/qm 0,0 nein 4,87 µg/m³ 3,30 µg/m³ 00:15
00:2019,4 °C 86 % 1013,1 hPa 0,0 mm 0,0 mm nein 1,6 km/h 3,2 km/h 0,0 mm/h SSO 0,000 klux 0,0 W/qm 0,0 nein 3,36 µg/m³ 3,06 µg/m³ 00:20
00:2519,4 °C 86 % 1013,1 hPa 0,0 mm 0,0 mm nein 1,6 km/h 4,8 km/h 0,0 mm/h SSO 0,000 klux 0,0 W/qm 0,0 nein 3,72 µg/m³ 3,37 µg/m³ 00:25
00:3019,4 °C 87 % 1013,1 hPa 0,0 mm 0,0 mm nein 1,6 km/h 3,2 km/h 0,0 mm/h SSO 0,000 klux 0,0 W/qm 0,0 nein 4,10 µg/m³ 3,62 µg/m³ 00:30
00:3519,4 °C 87 % 1013,1 hPa 0,0 mm 0,0 mm nein 1,6 km/h 3,2 km/h 0,0 mm/h SSO 0,000 klux 0,0 W/qm 0,0 nein 4,24 µg/m³ 3,87 µg/m³ 00:35
00:4019,4 °C 87 % 1013,1 hPa 0,0 mm 0,0 mm nein 1,6 km/h 3,2 km/h 0,0 mm/h SSO 0,000 klux 0,0 W/qm 0,0 nein 4,37 µg/m³ 3,94 µg/m³ 00:40
00:4519,4 °C 87 % 1013,1 hPa 0,0 mm 0,0 mm nein 0,0 km/h 3,2 km/h 0,0 mm/h SSO 0,000 klux 0,0 W/qm 0,0 nein 3,95 µg/m³ 3,62 µg/m³ 00:45
00:5019,4 °C 87 % 1013,1 hPa 0,0 mm 0,0 mm nein 0,0 km/h 1,6 km/h 0,0 mm/h SSO 0,000 klux 0,0 W/qm 0,0 nein 4,19 µg/m³ 3,79 µg/m³ 00:50
00:5519,4 °C 88 % 1013,1 hPa 0,0 mm 0,0 mm nein 0,0 km/h 0,0 km/h 0,0 mm/h N 0,000 klux 0,0 W/qm 0,0 nein 4,39 µg/m³ 3,98 µg/m³ 00:55
01:0019,4 °C 88 % 1013,1 hPa 0,0 mm 0,0 mm nein 0,0 km/h 0,0 km/h 0,0 mm/h N 0,000 klux 0,0 W/qm 0,0 nein 4,41 µg/m³ 4,03 µg/m³ 01:00
01:0519,4 °C 88 % 1013,1 hPa 0,0 mm 0,0 mm nein 1,6 km/h 4,8 km/h 0,0 mm/h SW 0,000 klux 0,0 W/qm 0,0 nein 4,50 µg/m³ 3,78 µg/m³ 01:05
01:1018,9 °C 88 % 1013,2 hPa 0,0 mm 0,0 mm nein 1,6 km/h 3,2 km/h 0,0 mm/h SSO 0,000 klux 0,0 W/qm 0,0 nein 6,17 µg/m³ 4,02 µg/m³ 01:10
01:1518,9 °C 88 % 1013,2 hPa 0,0 mm 0,0 mm nein 1,6 km/h 4,8 km/h 0,0 mm/h SW 0,000 klux 0,0 W/qm 0,0 nein 3,88 µg/m³ 3,49 µg/m³ 01:15
01:2018,9 °C 88 % 1013,1 hPa 0,0 mm 0,0 mm nein 0,0 km/h 4,8 km/h 0,0 mm/h SW 0,000 klux 0,0 W/qm 0,0 nein 3,90 µg/m³ 3,56 µg/m³ 01:20
01:2518,9 °C 88 % 1013,1 hPa 0,0 mm 0,0 mm nein 0,0 km/h 0,0 km/h 0,0 mm/h N 0,000 klux 0,0 W/qm 0,0 nein 4,25 µg/m³ 3,78 µg/m³ 01:25
01:3018,9 °C 88 % 1013,1 hPa 0,0 mm 0,0 mm nein 0,0 km/h 0,0 km/h 0,0 mm/h N 0,000 klux 0,0 W/qm 0,0 nein 5,66 µg/m³ 4,43 µg/m³ 01:30
01:3518,9 °C 88 % 1013,1 hPa 0,0 mm 0,0 mm nein 1,6 km/h 3,2 km/h 0,0 mm/h SW 0,000 klux 0,0 W/qm 0,0 nein 4,25 µg/m³ 3,91 µg/m³ 01:35
01:4018,9 °C 88 % 1013,1 hPa 0,0 mm 0,0 mm nein 0,0 km/h 1,6 km/h 0,0 mm/h SW 0,000 klux 0,0 W/qm 0,0 nein 5,63 µg/m³ 5,09 µg/m³ 01:40
01:4518,9 °C 88 % 1013,0 hPa 0,0 mm 0,0 mm nein 1,6 km/h 4,8 km/h 0,0 mm/h SW 0,000 klux 0,0 W/qm 0,0 nein 5,48 µg/m³ 4,82 µg/m³ 01:45
01:5018,9 °C 88 % 1013,0 hPa 0,0 mm 0,0 mm nein 3,2 km/h 4,8 km/h 0,0 mm/h SW 0,000 klux 0,0 W/qm 0,0 nein 7,39 µg/m³ 5,73 µg/m³ 01:50
01:5518,9 °C 89 % 1013,1 hPa 0,0 mm 0,0 mm nein 3,2 km/h 6,4 km/h 0,0 mm/h SW 0,000 klux 0,0 W/qm 0,0 nein 5,51 µg/m³ 5,01 µg/m³ 01:55
UhrzeitTemperaturFeuchteLuftdruckNiederschlagEvapotranspirationNiederschlag?WindWindböenRegenrateWindrichtungHelligkeitSolarstrahlungUV-IndexSonne?Feinstaub 10µmFeinstaub 2,5µmUhrzeit
02:0018,9 °C 89 % 1013,0 hPa 0,0 mm 0,0 mm nein 3,2 km/h 4,8 km/h 0,0 mm/h SW 0,000 klux 0,0 W/qm 0,0 nein 5,49 µg/m³ 4,90 µg/m³ 02:00
02:0518,9 °C 89 % 1013,0 hPa 0,0 mm 0,0 mm nein 3,2 km/h 6,4 km/h 0,0 mm/h SW 0,000 klux 0,0 W/qm 0,0 nein 5,77 µg/m³ 5,24 µg/m³ 02:05
02:1018,9 °C 89 % 1013,0 hPa 0,0 mm 0,0 mm nein 3,2 km/h 6,4 km/h 0,0 mm/h SW 0,000 klux 0,0 W/qm 0,0 nein 5,21 µg/m³ 4,68 µg/m³ 02:10
02:1518,9 °C 89 % 1013,0 hPa 0,0 mm 0,0 mm nein 3,2 km/h 6,4 km/h 0,0 mm/h SW 0,000 klux 0,0 W/qm 0,0 nein 5,26 µg/m³ 4,76 µg/m³ 02:15
02:2018,9 °C 89 % 1013,0 hPa 0,0 mm 0,0 mm nein 4,8 km/h 6,4 km/h 0,0 mm/h SW 0,000 klux 0,0 W/qm 0,0 nein 7,52 µg/m³ 5,22 µg/m³ 02:20
02:2518,9 °C 89 % 1012,9 hPa 0,0 mm 0,0 mm nein 4,8 km/h 6,4 km/h 0,0 mm/h SW 0,000 klux 0,0 W/qm 0,0 nein 5,52 µg/m³ 5,05 µg/m³ 02:25
02:3018,9 °C 89 % 1012,9 hPa 0,0 mm 0,0 mm nein 3,2 km/h 6,4 km/h 0,0 mm/h SW 0,000 klux 0,0 W/qm 0,0 nein 5,14 µg/m³ 4,64 µg/m³ 02:30
02:3518,9 °C 89 % 1012,8 hPa 0,0 mm 0,0 mm nein 0,0 km/h 3,2 km/h 0,0 mm/h SW 0,000 klux 0,0 W/qm 0,0 nein 5,36 µg/m³ 4,86 µg/m³ 02:35
02:4018,3 °C 89 % 1012,9 hPa 0,0 mm 0,0 mm nein 0,0 km/h 1,6 km/h 0,0 mm/h SW 0,000 klux 0,0 W/qm 0,0 nein 5,61 µg/m³ 4,65 µg/m³ 02:40
02:4518,3 °C 89 % 1012,9 hPa 0,0 mm 0,0 mm nein 0,0 km/h 1,6 km/h 0,0 mm/h SW 0,000 klux 0,0 W/qm 0,0 nein 5,07 µg/m³ 4,57 µg/m³ 02:45
02:5018,3 °C 89 % 1012,9 hPa 0,0 mm 0,0 mm nein 1,6 km/h 4,8 km/h 0,0 mm/h SO 0,000 klux 0,0 W/qm 0,0 nein 5,07 µg/m³ 4,61 µg/m³ 02:50
02:5518,3 °C 88 % 1012,8 hPa 0,0 mm 0,0 mm nein 0,0 km/h 3,2 km/h 0,0 mm/h SO 0,000 klux 0,0 W/qm 0,0 nein 5,80 µg/m³ 5,27 µg/m³ 02:55
03:0018,3 °C 88 % 1012,8 hPa 0,0 mm 0,0 mm nein 0,0 km/h 3,2 km/h 0,0 mm/h SSO 0,000 klux 0,0 W/qm 0,0 nein 5,94 µg/m³ 5,38 µg/m³ 03:00
03:0518,3 °C 89 % 1012,7 hPa 0,0 mm 0,0 mm nein 0,0 km/h 3,2 km/h 0,0 mm/h SO 0,000 klux 0,0 W/qm 0,0 nein 5,22 µg/m³ 4,74 µg/m³ 03:05
03:1018,3 °C 89 % 1012,7 hPa 0,0 mm 0,0 mm nein 0,0 km/h 1,6 km/h 0,0 mm/h SSO 0,000 klux 0,0 W/qm 0,0 nein 5,37 µg/m³ 4,87 µg/m³ 03:10
03:1518,3 °C 89 % 1012,7 hPa 0,0 mm 0,0 mm nein 0,0 km/h 3,2 km/h 0,0 mm/h SO 0,000 klux 0,0 W/qm 0,0 nein 5,25 µg/m³ 4,79 µg/m³ 03:15
03:2018,3 °C 89 % 1012,6 hPa 0,0 mm 0,0 mm nein 0,0 km/h 1,6 km/h 0,0 mm/h SO 0,000 klux 0,0 W/qm 0,0 nein 5,40 µg/m³ 4,86 µg/m³ 03:20
03:2517,8 °C 89 % 1012,6 hPa 0,0 mm 0,0 mm nein 0,0 km/h 1,6 km/h 0,0 mm/h SSO 0,000 klux 0,0 W/qm 0,0 nein 5,94 µg/m³ 5,32 µg/m³ 03:25
03:3017,8 °C 89 % 1012,5 hPa 0,0 mm 0,0 mm nein 0,0 km/h 3,2 km/h 0,0 mm/h SSO 0,000 klux 0,0 W/qm 0,0 nein 5,45 µg/m³ 4,88 µg/m³ 03:30
03:3517,8 °C 89 % 1012,5 hPa 0,0 mm 0,0 mm nein 0,0 km/h 0,0 km/h 0,0 mm/h N 0,000 klux 0,0 W/qm 0,0 nein 4,72 µg/m³ 4,33 µg/m³ 03:35
03:4017,8 °C 89 % 1012,6 hPa 0,0 mm 0,0 mm nein 0,0 km/h 0,0 km/h 0,0 mm/h N 0,000 klux 0,0 W/qm 0,0 nein 6,62 µg/m³ 5,52 µg/m³ 03:40
03:4517,8 °C 89 % 1012,6 hPa 0,0 mm 0,0 mm nein 0,0 km/h 0,0 km/h 0,0 mm/h N 0,000 klux 0,0 W/qm 0,0 nein 6,07 µg/m³ 5,46 µg/m³ 03:45
03:5017,8 °C 89 % 1012,5 hPa 0,0 mm 0,0 mm nein 0,0 km/h 1,6 km/h 0,0 mm/h SSO 0,000 klux 0,0 W/qm 0,0 nein 6,93 µg/m³ 6,18 µg/m³ 03:50
03:5517,8 °C 89 % 1012,5 hPa 0,0 mm 0,0 mm nein 0,0 km/h 1,6 km/h 0,0 mm/h SSO 0,000 klux 0,0 W/qm 0,0 nein 6,58 µg/m³ 5,89 µg/m³ 03:55
UhrzeitTemperaturFeuchteLuftdruckNiederschlagEvapotranspirationNiederschlag?WindWindböenRegenrateWindrichtungHelligkeitSolarstrahlungUV-IndexSonne?Feinstaub 10µmFeinstaub 2,5µmUhrzeit
04:0017,8 °C 89 % 1012,5 hPa 0,0 mm 0,0 mm nein 0,0 km/h 1,6 km/h 0,0 mm/h SSO 0,000 klux 0,0 W/qm 0,0 nein 6,07 µg/m³ 5,45 µg/m³ 04:00
04:0517,8 °C 89 % 1012,5 hPa 0,0 mm 0,0 mm nein 0,0 km/h 1,6 km/h 0,0 mm/h SSO 0,000 klux 0,0 W/qm 0,0 nein 6,46 µg/m³ 5,79 µg/m³ 04:05
04:1017,2 °C 89 % 1012,6 hPa 0,0 mm 0,0 mm nein 1,6 km/h 3,2 km/h 0,0 mm/h SSO 0,000 klux 0,0 W/qm 0,0 nein 5,86 µg/m³ 5,29 µg/m³ 04:10
04:1517,2 °C 89 % 1012,6 hPa 0,0 mm 0,0 mm nein 0,0 km/h 1,6 km/h 0,0 mm/h SSO 0,000 klux 0,0 W/qm 0,0 nein 5,57 µg/m³ 5,04 µg/m³ 04:15
04:2017,2 °C 90 % 1012,6 hPa 0,0 mm 0,0 mm nein 0,0 km/h 1,6 km/h 0,0 mm/h SO 0,000 klux 0,0 W/qm 0,0 nein 4,93 µg/m³ 4,44 µg/m³ 04:20
04:2517,2 °C 89 % 1012,6 hPa 0,0 mm 0,0 mm nein 0,0 km/h 0,0 km/h 0,0 mm/h N 0,000 klux 0,0 W/qm 0,0 nein 7,57 µg/m³ 6,33 µg/m³ 04:25
04:3017,2 °C 89 % 1012,6 hPa 0,0 mm 0,0 mm nein 0,0 km/h 1,6 km/h 0,0 mm/h SSO 0,000 klux 0,0 W/qm 0,0 nein 5,71 µg/m³ 5,14 µg/m³ 04:30
04:3517,2 °C 89 % 1012,5 hPa 0,0 mm 0,0 mm nein 0,0 km/h 1,6 km/h 0,0 mm/h SSO 0,000 klux 0,0 W/qm 0,0 nein 6,80 µg/m³ 6,00 µg/m³ 04:35
04:4017,2 °C 90 % 1012,6 hPa 0,0 mm 0,0 mm nein 0,0 km/h 1,6 km/h 0,0 mm/h SSO 0,000 klux 0,0 W/qm 0,0 nein 4,80 µg/m³ 4,36 µg/m³ 04:40
04:4517,2 °C 90 % 1012,6 hPa 0,0 mm 0,0 mm nein 0,0 km/h 1,6 km/h 0,0 mm/h SSO 0,000 klux 0,0 W/qm 0,0 nein 5,12 µg/m³ 4,63 µg/m³ 04:45
04:5017,2 °C 90 % 1012,6 hPa 0,0 mm 0,0 mm nein 0,0 km/h 0,0 km/h 0,0 mm/h N 0,000 klux 0,0 W/qm 0,0 nein 4,68 µg/m³ 4,26 µg/m³ 04:50
04:5517,2 °C 90 % 1012,8 hPa 0,0 mm 0,0 mm nein 0,0 km/h 1,6 km/h 0,0 mm/h SSO 0,000 klux 0,0 W/qm 0,0 nein 4,94 µg/m³ 4,47 µg/m³ 04:55
05:0017,2 °C 90 % 1012,8 hPa 0,0 mm 0,0 mm nein 0,0 km/h 1,6 km/h 0,0 mm/h SSO 0,000 klux 0,0 W/qm 0,0 nein 5,17 µg/m³ 4,64 µg/m³ 05:00
05:0517,2 °C 90 % 1012,8 hPa 0,0 mm 0,0 mm nein 0,0 km/h 1,6 km/h 0,0 mm/h SSO 0,000 klux 0,0 W/qm 0,0 nein 5,79 µg/m³ 5,19 µg/m³ 05:05
05:1016,7 °C 90 % 1012,8 hPa 0,0 mm 0,0 mm nein 1,6 km/h 4,8 km/h 0,0 mm/h SSO 0,000 klux 0,0 W/qm 0,0 nein 5,86 µg/m³ 4,72 µg/m³ 05:10
05:1516,7 °C 90 % 1012,7 hPa 0,0 mm 0,0 mm nein 4,8 km/h 6,4 km/h 0,0 mm/h SSO 0,000 klux 0,0 W/qm 0,0 nein 5,40 µg/m³ 4,86 µg/m³ 05:15
05:2016,7 °C 91 % 1012,8 hPa 0,0 mm 0,0 mm nein 3,2 km/h 6,4 km/h 0,0 mm/h S 0,000 klux 0,0 W/qm 0,0 nein 5,39 µg/m³ 4,83 µg/m³ 05:20
05:2516,7 °C 91 % 1012,7 hPa 0,0 mm 0,0 mm nein 4,8 km/h 6,4 km/h 0,0 mm/h S 0,000 klux 0,0 W/qm 0,0 nein 5,12 µg/m³ 4,58 µg/m³ 05:25
05:3016,7 °C 91 % 1012,7 hPa 0,0 mm 0,0 mm nein 4,8 km/h 6,4 km/h 0,0 mm/h S 0,000 klux 3,0 W/qm 0,0 nein 5,22 µg/m³ 4,55 µg/m³ 05:30
05:3516,7 °C 91 % 1012,8 hPa 0,0 mm 0,0 mm nein 3,2 km/h 6,4 km/h 0,0 mm/h S 0,000 klux 5,0 W/qm 0,0 nein 4,86 µg/m³ 4,40 µg/m³ 05:35
05:4016,7 °C 92 % 1012,8 hPa 0,0 mm 0,0 mm nein 3,2 km/h 6,4 km/h 0,0 mm/h S 0,000 klux 7,0 W/qm 0,0 nein 4,70 µg/m³ 4,23 µg/m³ 05:40
05:4516,7 °C 92 % 1012,8 hPa 0,0 mm 0,0 mm nein 3,2 km/h 6,4 km/h 0,0 mm/h S 0,000 klux 9,0 W/qm 0,0 nein 4,72 µg/m³ 4,25 µg/m³ 05:45
05:5016,7 °C 91 % 1012,8 hPa 0,0 mm 0,0 mm nein 3,2 km/h 4,8 km/h 0,0 mm/h S 0,000 klux 12,0 W/qm 0,0 nein 6,32 µg/m³ 5,66 µg/m³ 05:50
05:5516,7 °C 91 % 1012,8 hPa 0,0 mm 0,0 mm nein 0,0 km/h 3,2 km/h 0,0 mm/h S 0,000 klux 12,0 W/qm 0,0 nein 5,18 µg/m³ 4,70 µg/m³ 05:55
UhrzeitTemperaturFeuchteLuftdruckNiederschlagEvapotranspirationNiederschlag?WindWindböenRegenrateWindrichtungHelligkeitSolarstrahlungUV-IndexSonne?Feinstaub 10µmFeinstaub 2,5µmUhrzeit
06:0016,7 °C 91 % 1012,8 hPa 0,0 mm 0,0 mm nein 0,0 km/h 3,2 km/h 0,0 mm/h S 0,000 klux 13,0 W/qm 0,0 nein 5,15 µg/m³ 4,66 µg/m³ 06:00
06:0516,7 °C 91 % 1012,9 hPa 0,0 mm 0,0 mm nein 1,6 km/h 3,2 km/h 0,0 mm/h S 0,000 klux 17,0 W/qm 0,0 nein 6,69 µg/m³ 5,76 µg/m³ 06:05
06:1016,7 °C 91 % 1012,9 hPa 0,0 mm 0,0 mm nein 1,6 km/h 4,8 km/h 0,0 mm/h S 0,000 klux 20,0 W/qm 0,0 nein 5,09 µg/m³ 4,60 µg/m³ 06:10
06:1516,7 °C 91 % 1012,9 hPa 0,0 mm 0,0 mm nein 0,0 km/h 3,2 km/h 0,0 mm/h S 0,000 klux 22,0 W/qm 0,0 nein 5,82 µg/m³ 5,24 µg/m³ 06:15
06:2016,7 °C 91 % 1012,9 hPa 0,0 mm 0,0 mm nein 1,6 km/h 4,8 km/h 0,0 mm/h S 0,000 klux 26,0 W/qm 0,0 nein 5,35 µg/m³ 4,82 µg/m³ 06:20
06:2516,7 °C 91 % 1012,8 hPa 0,0 mm 0,0 mm nein 1,6 km/h 4,8 km/h 0,0 mm/h S 0,000 klux 29,0 W/qm 0,0 nein 5,87 µg/m³ 5,26 µg/m³ 06:25
06:3016,7 °C 91 % 1012,9 hPa 0,0 mm 0,0 mm nein 0,0 km/h 1,6 km/h 0,0 mm/h S 0,000 klux 33,0 W/qm 0,0 nein 6,18 µg/m³ 4,94 µg/m³ 06:30
06:3516,7 °C 91 % 1012,8 hPa 0,0 mm 0,0 mm nein 0,0 km/h 1,6 km/h 0,0 mm/h S 0,000 klux 36,0 W/qm 0,0 nein 5,35 µg/m³ 4,82 µg/m³ 06:35
06:4016,7 °C 91 % 1012,8 hPa 0,0 mm 0,0 mm nein 0,0 km/h 1,6 km/h 0,0 mm/h S 0,000 klux 40,0 W/qm 0,0 nein 5,28 µg/m³ 4,70 µg/m³ 06:40
06:4516,7 °C 91 % 1012,9 hPa 0,0 mm 0,0 mm nein 0,0 km/h 0,0 km/h 0,0 mm/h N 0,000 klux 48,0 W/qm 0,0 nein 4,88 µg/m³ 4,42 µg/m³ 06:45
06:5016,7 °C 91 % 1012,8 hPa 0,0 mm 0,0 mm nein 0,0 km/h 0,0 km/h 0,0 mm/h N 0,000 klux 74,0 W/qm 0,0 nein 5,32 µg/m³ 4,80 µg/m³ 06:50
06:5516,7 °C 92 % 1012,8 hPa 0,0 mm 0,0 mm nein 0,0 km/h 0,0 km/h 0,0 mm/h N 0,000 klux 103,0 W/qm 0,0 nein 4,44 µg/m³ 4,03 µg/m³ 06:55
07:0017,2 °C 94 % 1012,8 hPa 0,0 mm 0,0 mm nein 0,0 km/h 1,6 km/h 0,0 mm/h S 0,000 klux 152,0 W/qm 0,0 nein 3,12 µg/m³ 2,86 µg/m³ 07:00
07:0517,2 °C 94 % 1012,8 hPa 0,0 mm 0,0 mm nein 0,0 km/h 1,6 km/h 0,0 mm/h S 0,000 klux 106,0 W/qm 0,0 nein 2,99 µg/m³ 2,71 µg/m³ 07:05
07:1017,8 °C 94 % 1012,7 hPa 0,0 mm 0,0 mm nein 0,0 km/h 1,6 km/h 0,0 mm/h S 0,000 klux 79,0 W/qm 0,0 nein 2,99 µg/m³ 2,72 µg/m³ 07:10
07:1517,8 °C 94 % 1012,7 hPa 0,0 mm 0,0 mm nein 0,0 km/h 4,8 km/h 0,0 mm/h S 0,000 klux 109,0 W/qm 0,0 nein 2,75 µg/m³ 2,50 µg/m³ 07:15
07:2017,8 °C 94 % 1012,7 hPa 0,0 mm 0,0 mm nein 1,6 km/h 4,8 km/h 0,0 mm/h S 0,000 klux 201,0 W/qm 0,0 nein 2,90 µg/m³ 2,63 µg/m³ 07:20
07:2518,3 °C 94 % 1012,6 hPa 0,0 mm 0,0 mm nein 0,0 km/h 3,2 km/h 0,0 mm/h SW 0,000 klux 170,0 W/qm 0,1 nein 2,70 µg/m³ 2,45 µg/m³ 07:25
07:3018,3 °C 94 % 1012,5 hPa 0,0 mm 0,0 mm nein 0,0 km/h 3,2 km/h 0,0 mm/h SW 0,000 klux 245,0 W/qm 0,4 nein 2,61 µg/m³ 2,33 µg/m³ 07:30
07:3518,9 °C 93 % 1012,4 hPa 0,0 mm 0,0 mm nein 1,6 km/h 3,2 km/h 0,0 mm/h SW 0,000 klux 260,0 W/qm 0,5 nein 2,61 µg/m³ 2,40 µg/m³ 07:35
07:4019,4 °C 92 % 1012,3 hPa 0,0 mm 0,0 mm nein 1,6 km/h 3,2 km/h 0,0 mm/h S 0,000 klux 273,0 W/qm 0,6 nein 2,83 µg/m³ 2,58 µg/m³ 07:40
07:4520,6 °C 88 % 1012,2 hPa 0,0 mm 0,0 mm nein 1,6 km/h 4,8 km/h 0,0 mm/h S 0,000 klux 289,0 W/qm 0,6 nein 3,79 µg/m³ 3,44 µg/m³ 07:45
07:5021,1 °C 86 % 1012,1 hPa 0,0 mm 0,0 mm nein 1,6 km/h 4,8 km/h 0,0 mm/h SSO 0,000 klux 307,0 W/qm 0,7 nein 4,97 µg/m³ 4,57 µg/m³ 07:50
07:5521,1 °C 85 % 1012,0 hPa 0,0 mm 0,0 mm nein 1,6 km/h 4,8 km/h 0,0 mm/h SSO 0,000 klux 323,0 W/qm 0,8 nein 5,22 µg/m³ 4,76 µg/m³ 07:55
UhrzeitTemperaturFeuchteLuftdruckNiederschlagEvapotranspirationNiederschlag?WindWindböenRegenrateWindrichtungHelligkeitSolarstrahlungUV-IndexSonne?Feinstaub 10µmFeinstaub 2,5µmUhrzeit
08:0021,7 °C 83 % 1011,9 hPa 0,0 mm 0,1 mm nein 4,8 km/h 9,7 km/h 0,0 mm/h SO 0,000 klux 336,0 W/qm 0,8 nein 5,27 µg/m³ 4,74 µg/m³ 08:00
08:0521,7 °C 83 % 1011,9 hPa 0,0 mm 0,0 mm nein 4,8 km/h 9,7 km/h 0,0 mm/h SO 0,000 klux 353,0 W/qm 0,9 nein 4,95 µg/m³ 4,52 µg/m³ 08:05
08:1021,7 °C 81 % 1011,9 hPa 0,0 mm 0,0 mm nein 3,2 km/h 6,4 km/h 0,0 mm/h SO 0,000 klux 367,0 W/qm 0,9 nein 4,46 µg/m³ 4,11 µg/m³ 08:10
08:1522,2 °C 82 % 1011,8 hPa 0,0 mm 0,0 mm nein 1,6 km/h 4,8 km/h 0,0 mm/h SO 0,000 klux 383,0 W/qm 1,0 nein 5,43 µg/m³ 4,93 µg/m³ 08:15
08:2022,2 °C 80 % 1011,7 hPa 0,0 mm 0,0 mm nein 1,6 km/h 4,8 km/h 0,0 mm/h SO 0,000 klux 400,0 W/qm 1,1 nein 4,60 µg/m³ 4,26 µg/m³ 08:20
08:2522,8 °C 80 % 1011,5 hPa 0,0 mm 0,0 mm nein 1,6 km/h 4,8 km/h 0,0 mm/h SO 0,000 klux 413,0 W/qm 1,2 nein 5,04 µg/m³ 4,61 µg/m³ 08:25
08:3023,3 °C 78 % 1011,4 hPa 0,0 mm 0,0 mm nein 1,6 km/h 4,8 km/h 0,0 mm/h SO 0,000 klux 429,0 W/qm 1,3 nein 4,69 µg/m³ 4,33 µg/m³ 08:30
08:3523,3 °C 77 % 1011,4 hPa 0,0 mm 0,0 mm nein 3,2 km/h 8,0 km/h 0,0 mm/h SO 0,000 klux 442,0 W/qm 1,3 nein 4,80 µg/m³ 4,44 µg/m³ 08:35
08:4023,9 °C 77 % 1011,3 hPa 0,0 mm 0,0 mm nein 3,2 km/h 6,4 km/h 0,0 mm/h S 0,000 klux 456,0 W/qm 1,4 nein 5,19 µg/m³ 4,76 µg/m³ 08:40
08:4523,9 °C 75 % 1011,2 hPa 0,0 mm 0,0 mm nein 3,2 km/h 4,8 km/h 0,0 mm/h S 0,000 klux 468,0 W/qm 1,5 nein 4,82 µg/m³ 4,34 µg/m³ 08:45
08:5023,3 °C 76 % 1011,3 hPa 0,0 mm 0,0 mm nein 1,6 km/h 4,8 km/h 0,0 mm/h SSO 0,000 klux 483,0 W/qm 1,6 nein 5,24 µg/m³ 4,87 µg/m³ 08:50
08:5523,9 °C 76 % 1011,2 hPa 0,0 mm 0,0 mm nein 3,2 km/h 6,4 km/h 0,0 mm/h SSO 0,000 klux 497,0 W/qm 1,7 nein 31,84 µg/m³ 13,28 µg/m³ 08:55
09:0023,9 °C 76 % 1011,2 hPa 0,0 mm 0,3 mm nein 1,6 km/h 3,2 km/h 0,0 mm/h SSO 0,000 klux 510,0 W/qm 1,8 nein 13,84 µg/m³ 9,13 µg/m³ 09:00
09:0523,9 °C 74 % 1011,2 hPa 0,0 mm 0,0 mm nein 1,6 km/h 4,8 km/h 0,0 mm/h SSO 0,000 klux 526,0 W/qm 1,9 nein 19,76 µg/m³ 9,32 µg/m³ 09:05
09:1024,4 °C 74 % 1011,1 hPa 0,0 mm 0,0 mm nein 3,2 km/h 8,0 km/h 0,0 mm/h ONO 0,000 klux 540,0 W/qm 2,0 nein 24,43 µg/m³ 11,66 µg/m³ 09:10
09:1523,9 °C 73 % 1011,3 hPa 0,0 mm 0,0 mm nein 6,4 km/h 9,7 km/h 0,0 mm/h ONO 0,000 klux 554,0 W/qm 2,0 nein 16,02 µg/m³ 9,33 µg/m³ 09:15
09:2023,9 °C 74 % 1011,2 hPa 0,0 mm 0,0 mm nein 4,8 km/h 8,0 km/h 0,0 mm/h ONO 0,000 klux 567,0 W/qm 2,1 nein 11,07 µg/m³ 7,03 µg/m³ 09:20
09:2524,4 °C 71 % 1011,2 hPa 0,0 mm 0,0 mm nein 4,8 km/h 8,0 km/h 0,0 mm/h ONO 0,000 klux 581,0 W/qm 2,2 nein 19,31 µg/m³ 10,92 µg/m³ 09:25
09:3024,4 °C 72 % 1011,2 hPa 0,0 mm 0,0 mm nein 3,2 km/h 8,0 km/h 0,0 mm/h O 0,000 klux 594,0 W/qm 2,3 nein 11,35 µg/m³ 7,11 µg/m³ 09:30
09:3524,4 °C 71 % 1011,2 hPa 0,0 mm 0,0 mm nein 1,6 km/h 4,8 km/h 0,0 mm/h O 0,000 klux 605,0 W/qm 2,4 nein 18,91 µg/m³ 10,91 µg/m³ 09:35
09:4025,0 °C 70 % 1011,0 hPa 0,0 mm 0,0 mm nein 3,2 km/h 8,0 km/h 0,0 mm/h O 0,000 klux 617,0 W/qm 2,5 nein 19,60 µg/m³ 10,60 µg/m³ 09:40
09:4525,0 °C 70 % 1011,0 hPa 0,0 mm 0,0 mm nein 1,6 km/h 6,4 km/h 0,0 mm/h O 0,000 klux 632,0 W/qm 2,6 nein 13,02 µg/m³ 8,38 µg/m³ 09:45
09:5025,6 °C 69 % 1011,0 hPa 0,0 mm 0,0 mm nein 3,2 km/h 8,0 km/h 0,0 mm/h O 0,000 klux 643,0 W/qm 2,8 nein 13,71 µg/m³ 8,89 µg/m³ 09:50
09:5525,0 °C 69 % 1011,1 hPa 0,0 mm 0,0 mm nein 3,2 km/h 6,4 km/h 0,0 mm/h O 0,000 klux 657,0 W/qm 2,8 nein 21,68 µg/m³ 11,39 µg/m³ 09:55
UhrzeitTemperaturFeuchteLuftdruckNiederschlagEvapotranspirationNiederschlag?WindWindböenRegenrateWindrichtungHelligkeitSolarstrahlungUV-IndexSonne?Feinstaub 10µmFeinstaub 2,5µmUhrzeit
10:0025,0 °C 69 % 1011,1 hPa 0,0 mm 0,4 mm nein 1,6 km/h 4,8 km/h 0,0 mm/h O 0,000 klux 592,0 W/qm 2,7 nein 26,59 µg/m³ 12,62 µg/m³ 10:00
10:0525,6 °C 70 % 1010,9 hPa 0,0 mm 0,0 mm nein 3,2 km/h 4,8 km/h 0,0 mm/h N 0,000 klux 681,0 W/qm 2,8 nein 36,64 µg/m³ 22,08 µg/m³ 10:05
10:1025,6 °C 68 % 1010,9 hPa 0,0 mm 0,0 mm nein 3,2 km/h 6,4 km/h 0,0 mm/h NW 0,000 klux 713,0 W/qm 3,1 nein 19,34 µg/m³ 11,17 µg/m³ 10:10
10:1526,1 °C 67 % 1010,8 hPa 0,0 mm 0,0 mm nein 1,6 km/h 4,8 km/h 0,0 mm/h NW 0,000 klux 449,0 W/qm 2,7 nein 17,61 µg/m³ 10,65 µg/m³ 10:15
10:2025,6 °C 66 % 1010,9 hPa 0,0 mm 0,0 mm nein 1,6 km/h 4,8 km/h 0,0 mm/h NW 0,000 klux 186,0 W/qm 2,0 nein 20,32 µg/m³ 10,98 µg/m³ 10:20
10:2525,6 °C 66 % 1010,9 hPa 0,0 mm 0,0 mm nein 4,8 km/h 9,7 km/h 0,0 mm/h SSO 0,000 klux 653,0 W/qm 3,0 nein 20,17 µg/m³ 12,17 µg/m³ 10:25
10:3026,1 °C 66 % 1010,7 hPa 0,0 mm 0,0 mm nein 1,6 km/h 4,8 km/h 0,0 mm/h SW 0,000 klux 274,0 W/qm 2,7 nein 13,35 µg/m³ 9,64 µg/m³ 10:30
10:3526,1 °C 66 % 1010,6 hPa 0,0 mm 0,0 mm nein 1,6 km/h 4,8 km/h 0,0 mm/h S 0,000 klux 389,0 W/qm 3,2 nein 17,55 µg/m³ 10,05 µg/m³ 10:35
10:4026,1 °C 64 % 1010,7 hPa 0,0 mm 0,0 mm nein 1,6 km/h 6,4 km/h 0,0 mm/h WSW 0,000 klux 649,0 W/qm 2,9 nein 11,97 µg/m³ 8,64 µg/m³ 10:40
10:4525,6 °C 64 % 1010,7 hPa 0,0 mm 0,0 mm nein 1,6 km/h 6,4 km/h 0,0 mm/h NNW 0,000 klux 352,0 W/qm 2,5 nein 16,64 µg/m³ 10,61 µg/m³ 10:45
10:5025,6 °C 66 % 1010,7 hPa 0,0 mm 0,0 mm nein 1,6 km/h 6,4 km/h 0,0 mm/h O 0,000 klux 320,0 W/qm 2,7 nein 14,77 µg/m³ 9,32 µg/m³ 10:50
10:5525,6 °C 64 % 1010,7 hPa 0,0 mm 0,0 mm nein 4,8 km/h 9,7 km/h 0,0 mm/h O 0,000 klux 412,0 W/qm 3,2 nein 21,51 µg/m³ 12,20 µg/m³ 10:55
11:0025,0 °C 66 % 1010,7 hPa 0,0 mm 0,3 mm nein 3,2 km/h 6,4 km/h 0,0 mm/h O 0,000 klux 102,0 W/qm 2,2 nein 15,85 µg/m³ 10,43 µg/m³ 11:00
11:0525,0 °C 68 % 1010,7 hPa 0,0 mm 0,0 mm nein 3,2 km/h 6,4 km/h 0,0 mm/h NO 0,000 klux 150,0 W/qm 2,6 nein 9,50 µg/m³ 7,42 µg/m³ 11:05
11:1026,1 °C 66 % 1010,5 hPa 0,0 mm 0,0 mm nein 1,6 km/h 3,2 km/h 0,0 mm/h NO 0,000 klux 916,0 W/qm 3,8 nein 8,88 µg/m³ 7,35 µg/m³ 11:10
11:1526,1 °C 63 % 1010,5 hPa 0,0 mm 0,0 mm nein 0,0 km/h 3,2 km/h 0,0 mm/h NO 0,000 klux 364,0 W/qm 2,8 nein 12,70 µg/m³ 9,62 µg/m³ 11:15
11:2025,6 °C 65 % 1010,7 hPa 0,0 mm 0,0 mm nein 3,2 km/h 8,0 km/h 0,0 mm/h S 0,000 klux 201,0 W/qm 2,4 nein 8,20 µg/m³ 7,22 µg/m³ 11:20
11:2526,7 °C 62 % 1010,5 hPa 0,0 mm 0,0 mm nein 3,2 km/h 6,4 km/h 0,0 mm/h S 0,000 klux 804,0 W/qm 3,9 nein 23,39 µg/m³ 12,43 µg/m³ 11:25
11:3026,7 °C 60 % 1010,4 hPa 0,0 mm 0,0 mm nein 1,6 km/h 6,4 km/h 0,0 mm/h S 0,000 klux 945,0 W/qm 5,0 nein 22,83 µg/m³ 12,87 µg/m³ 11:30
11:3527,2 °C 59 % 1010,3 hPa 0,0 mm 0,0 mm nein 1,6 km/h 4,8 km/h 0,0 mm/h S 0,000 klux 907,0 W/qm 5,1 nein 40,94 µg/m³ 16,36 µg/m³ 11:35
11:4027,2 °C 56 % 1010,3 hPa 0,0 mm 0,0 mm nein 4,8 km/h 12,9 km/h 0,0 mm/h O 0,000 klux 920,0 W/qm 5,2 nein 7,72 µg/m³ 6,96 µg/m³ 11:40
11:4527,2 °C 59 % 1010,2 hPa 0,0 mm 0,0 mm nein 4,8 km/h 9,7 km/h 0,0 mm/h SO 0,000 klux 955,0 W/qm 4,8 nein 9,96 µg/m³ 7,81 µg/m³ 11:45
11:5027,2 °C 59 % 1010,3 hPa 0,0 mm 0,0 mm nein 3,2 km/h 6,4 km/h 0,0 mm/h S 0,000 klux 962,0 W/qm 4,0 nein 13,78 µg/m³ 8,36 µg/m³ 11:50
11:5527,8 °C 57 % 1010,2 hPa 0,0 mm 0,0 mm nein 1,6 km/h 6,4 km/h 0,0 mm/h S 0,000 klux 1002,0 W/qm 4,7 nein 9,28 µg/m³ 7,82 µg/m³ 11:55
UhrzeitTemperaturFeuchteLuftdruckNiederschlagEvapotranspirationNiederschlag?WindWindböenRegenrateWindrichtungHelligkeitSolarstrahlungUV-IndexSonne?Feinstaub 10µmFeinstaub 2,5µmUhrzeit
12:0027,2 °C 55 % 1010,3 hPa 0,0 mm 0,4 mm nein 1,6 km/h 4,8 km/h 0,0 mm/h SO 0,000 klux 729,0 W/qm 4,1 nein 16,55 µg/m³ 10,04 µg/m³ 12:00
12:0527,2 °C 58 % 1010,2 hPa 0,0 mm 0,0 mm nein 0,0 km/h 4,8 km/h 0,0 mm/h SO 0,000 klux 637,0 W/qm 4,3 nein 10,19 µg/m³ 8,17 µg/m³ 12:05
12:1026,7 °C 58 % 1010,2 hPa 0,0 mm 0,0 mm nein 4,8 km/h 9,7 km/h 0,0 mm/h WNW 0,000 klux 229,0 W/qm 3,2 nein 7,36 µg/m³ 6,61 µg/m³ 12:10
12:1527,2 °C 58 % 1010,2 hPa 0,0 mm 0,0 mm nein 3,2 km/h 8,0 km/h 0,0 mm/h ONO 0,000 klux 1007,0 W/qm 5,5 nein 7,61 µg/m³ 6,83 µg/m³ 12:15
12:2027,8 °C 58 % 1010,0 hPa 0,0 mm 0,0 mm nein 4,8 km/h 8,0 km/h 0,0 mm/h OSO 0,000 klux 992,0 W/qm 5,6 nein 8,66 µg/m³ 6,31 µg/m³ 12:20
12:2527,8 °C 56 % 1010,0 hPa 0,0 mm 0,0 mm nein 3,2 km/h 8,0 km/h 0,0 mm/h O 0,000 klux 1000,0 W/qm 5,8 nein 6,20 µg/m³ 5,54 µg/m³ 12:25
12:3027,8 °C 52 % 1010,0 hPa 0,0 mm 0,0 mm nein 4,8 km/h 11,3 km/h 0,0 mm/h O 0,000 klux 988,0 W/qm 5,8 nein 6,84 µg/m³ 6,31 µg/m³ 12:30
12:3528,3 °C 54 % 1009,9 hPa 0,0 mm 0,0 mm nein 4,8 km/h 9,7 km/h 0,0 mm/h SO 0,000 klux 986,0 W/qm 5,7 nein 14,24 µg/m³ 8,31 µg/m³ 12:35
12:4028,3 °C 54 % 1009,8 hPa 0,0 mm 0,0 mm nein 3,2 km/h 6,4 km/h 0,0 mm/h SSO 0,000 klux 999,0 W/qm 5,9 nein 8,74 µg/m³ 7,14 µg/m³ 12:40
12:4528,9 °C 53 % 1009,7 hPa 0,0 mm 0,0 mm nein 4,8 km/h 11,3 km/h 0,0 mm/h SO 0,000 klux 1000,0 W/qm 5,4 nein 7,94 µg/m³ 5,94 µg/m³ 12:45
12:5028,9 °C 51 % 1009,8 hPa 0,0 mm 0,0 mm nein 4,8 km/h 9,7 km/h 0,0 mm/h S 0,000 klux 1028,0 W/qm 6,1 nein 8,77 µg/m³ 6,80 µg/m³ 12:50
12:5528,3 °C 52 % 1009,8 hPa 0,0 mm 0,0 mm nein 4,8 km/h 12,9 km/h 0,0 mm/h O 0,000 klux 1035,0 W/qm 6,1 nein 8,06 µg/m³ 6,81 µg/m³ 12:55
13:0028,3 °C 50 % 1009,8 hPa 0,0 mm 0,6 mm nein 4,8 km/h 9,7 km/h 0,0 mm/h ONO 0,000 klux 1049,0 W/qm 6,0 nein 6,22 µg/m³ 5,60 µg/m³ 13:00
13:0528,3 °C 51 % 1009,8 hPa 0,0 mm 0,0 mm nein 4,8 km/h 9,7 km/h 0,0 mm/h O 0,000 klux 1030,0 W/qm 6,1 nein 5,80 µg/m³ 5,12 µg/m³ 13:05
13:1028,9 °C 52 % 1009,6 hPa 0,0 mm 0,0 mm nein 1,6 km/h 6,4 km/h 0,0 mm/h O 0,000 klux 1028,0 W/qm 6,1 nein 10,17 µg/m³ 6,14 µg/m³ 13:10
13:1528,9 °C 50 % 1009,6 hPa 0,0 mm 0,0 mm nein 3,2 km/h 6,4 km/h 0,0 mm/h OSO 0,000 klux 1015,0 W/qm 6,1 nein 9,22 µg/m³ 7,73 µg/m³ 13:15
13:2028,9 °C 51 % 1009,5 hPa 0,0 mm 0,0 mm nein 1,6 km/h 3,2 km/h 0,0 mm/h OSO 0,000 klux 1006,0 W/qm 6,1 nein 8,39 µg/m³ 7,48 µg/m³ 13:20
13:2528,9 °C 51 % 1009,5 hPa 0,0 mm 0,0 mm nein 4,8 km/h 9,7 km/h 0,0 mm/h OSO 0,000 klux 1016,0 W/qm 6,2 nein 9,47 µg/m³ 7,42 µg/m³ 13:25
13:3028,9 °C 50 % 1009,5 hPa 0,0 mm 0,0 mm nein 3,2 km/h 8,0 km/h 0,0 mm/h O 0,000 klux 1013,0 W/qm 6,1 nein 14,91 µg/m³ 7,94 µg/m³ 13:30
13:3528,9 °C 51 % 1009,5 hPa 0,0 mm 0,0 mm nein 3,2 km/h 6,4 km/h 0,0 mm/h SO 0,000 klux 872,0 W/qm 4,9 nein 8,89 µg/m³ 6,27 µg/m³ 13:35
13:4028,9 °C 51 % 1009,4 hPa 0,0 mm 0,0 mm nein 3,2 km/h 6,4 km/h 0,0 mm/h OSO 0,000 klux 734,0 W/qm 4,5 nein 6,77 µg/m³ 6,00 µg/m³ 13:40
13:4528,9 °C 48 % 1009,4 hPa 0,0 mm 0,0 mm nein 1,6 km/h 8,0 km/h 0,0 mm/h S 0,000 klux 819,0 W/qm 5,2 nein 5,85 µg/m³ 5,28 µg/m³ 13:45
13:5028,9 °C 48 % 1009,3 hPa 0,0 mm 0,0 mm nein 4,8 km/h 12,9 km/h 0,0 mm/h O 0,000 klux 1040,0 W/qm 6,0 nein 9,93 µg/m³ 6,66 µg/m³ 13:50
13:5528,9 °C 50 % 1009,2 hPa 0,0 mm 0,0 mm nein 9,7 km/h 14,5 km/h 0,0 mm/h NNO 0,000 klux 1013,0 W/qm 5,6 nein 6,93 µg/m³ 5,33 µg/m³ 13:55
UhrzeitTemperaturFeuchteLuftdruckNiederschlagEvapotranspirationNiederschlag?WindWindböenRegenrateWindrichtungHelligkeitSolarstrahlungUV-IndexSonne?Feinstaub 10µmFeinstaub 2,5µmUhrzeit
14:0029,4 °C 51 % 1009,1 hPa 0,0 mm 0,7 mm nein 8,0 km/h 17,7 km/h 0,0 mm/h N 0,000 klux 1020,0 W/qm 5,8 nein 7,77 µg/m³ 5,92 µg/m³ 14:00
14:0529,4 °C 47 % 1009,2 hPa 0,0 mm 0,0 mm nein 6,4 km/h 17,7 km/h 0,0 mm/h O 0,000 klux 1064,0 W/qm 4,7 nein 6,73 µg/m³ 6,16 µg/m³ 14:05
14:1028,3 °C 48 % 1009,4 hPa 0,0 mm 0,0 mm nein 6,4 km/h 12,9 km/h 0,0 mm/h O 0,000 klux 263,0 W/qm 2,6 nein - - 14:10
14:1528,3 °C 51 % 1009,4 hPa 0,0 mm 0,0 mm nein 6,4 km/h 12,9 km/h 0,0 mm/h O 0,000 klux 245,0 W/qm 2,4 nein 5,50 µg/m³ 5,01 µg/m³ 14:15
14:2029,4 °C 49 % 1009,1 hPa 0,0 mm 0,0 mm nein 6,4 km/h 14,5 km/h 0,0 mm/h SSO 0,000 klux 1044,0 W/qm 5,1 nein 7,07 µg/m³ 5,82 µg/m³ 14:20
14:2529,4 °C 51 % 1009,2 hPa 0,0 mm 0,0 mm nein 3,2 km/h 11,3 km/h 0,0 mm/h SO 0,000 klux 671,0 W/qm 4,3 nein 7,97 µg/m³ 6,71 µg/m³ 14:25
14:3028,3 °C 51 % 1009,3 hPa 0,0 mm 0,0 mm nein 3,2 km/h 8,0 km/h 0,0 mm/h OSO 0,000 klux 276,0 W/qm 2,9 nein 14,10 µg/m³ 8,94 µg/m³ 14:30
14:3528,3 °C 50 % 1009,3 hPa 0,0 mm 0,0 mm nein 8,0 km/h 12,9 km/h 0,0 mm/h NO 0,000 klux 410,0 W/qm 3,6 nein 10,67 µg/m³ 8,42 µg/m³ 14:35
Gesamt: 21,8 °C 77 % 1011,7 hPa 0,0 mm 3,0 mm nein 2,2 km/h 5,3 km/h 0,0 mm/h 0 0,000 klux 319,5 W/qm 1,6 nein 8,38 µg/m³ 6,11 µg/m³

Insgesamt 176 Zeilen mal 16 Spalten = 2816 Werte werden angezeigt.

www.wetter-rosstal.de   •   www.wetter-franken.de   •   www.lightningmaps.org   •   Start   •   Kontakt / Datenschutz   •   PC-Kümmerer